sensor_id;sensor_type;location;lat;lon;timestamp;temperature;humidity
20929;DHT22;21895;47.072;15.132;2023-05-14T00:00:27;12.00;99.90
20929;DHT22;21895;47.072;15.132;2023-05-14T00:02:53;12.00;99.90
20929;DHT22;21895;47.072;15.132;2023-05-14T00:05:21;12.00;99.90
20929;DHT22;21895;47.072;15.132;2023-05-14T00:07:47;12.00;99.90
20929;DHT22;21895;47.072;15.132;2023-05-14T00:10:14;12.00;99.90
20929;DHT22;21895;47.072;15.132;2023-05-14T00:12:42;12.00;99.90
20929;DHT22;21895;47.072;15.132;2023-05-14T00:15:09;11.90;99.90
20929;DHT22;21895;47.072;15.132;2023-05-14T00:17:36;12.00;99.90
20929;DHT22;21895;47.072;15.132;2023-05-14T00:20:04;12.00;99.90
20929;DHT22;21895;47.072;15.132;2023-05-14T00:22:32;12.00;99.90
20929;DHT22;21895;47.072;15.132;2023-05-14T00:24:59;12.00;99.90
20929;DHT22;21895;47.072;15.132;2023-05-14T00:27:25;12.10;99.90
20929;DHT22;21895;47.072;15.132;2023-05-14T00:29:52;12.10;99.90
20929;DHT22;21895;47.072;15.132;2023-05-14T00:32:18;12.00;99.90
20929;DHT22;21895;47.072;15.132;2023-05-14T00:34:45;12.00;99.90
20929;DHT22;21895;47.072;15.132;2023-05-14T00:37:11;12.00;99.90
20929;DHT22;21895;47.072;15.132;2023-05-14T00:39:38;12.00;99.90
20929;DHT22;21895;47.072;15.132;2023-05-14T00:42:05;12.00;99.90
20929;DHT22;21895;47.072;15.132;2023-05-14T00:44:31;12.00;99.90
20929;DHT22;21895;47.072;15.132;2023-05-14T00:46:59;12.00;99.90
20929;DHT22;21895;47.072;15.132;2023-05-14T00:49:26;11.90;99.90
20929;DHT22;21895;47.072;15.132;2023-05-14T00:51:53;11.90;99.90
20929;DHT22;21895;47.072;15.132;2023-05-14T00:54:20;11.80;99.90
20929;DHT22;21895;47.072;15.132;2023-05-14T00:56:47;11.80;99.90
20929;DHT22;21895;47.072;15.132;2023-05-14T00:59:14;11.90;99.90
20929;DHT22;21895;47.072;15.132;2023-05-14T01:01:41;12.00;99.90
20929;DHT22;21895;47.072;15.132;2023-05-14T01:04:09;12.00;99.90
20929;DHT22;21895;47.072;15.132;2023-05-14T01:07:19;12.10;99.90
20929;DHT22;21895;47.072;15.132;2023-05-14T01:10:26;12.10;99.90
20929;DHT22;21895;47.072;15.132;2023-05-14T01:16:48;12.00;99.90
20929;DHT22;21895;47.072;15.132;2023-05-14T01:19:32;12.00;99.90
20929;DHT22;21895;47.072;15.132;2023-05-14T01:22:10;12.00;99.90
20929;DHT22;21895;47.072;15.132;2023-05-14T01:24:37;12.00;99.90
20929;DHT22;21895;47.072;15.132;2023-05-14T01:27:29;12.00;99.90
20929;DHT22;21895;47.072;15.132;2023-05-14T01:30:28;12.00;99.90
20929;DHT22;21895;47.072;15.132;2023-05-14T01:33:16;12.00;99.90
20929;DHT22;21895;47.072;15.132;2023-05-14T01:35:44;12.00;99.90
20929;DHT22;21895;47.072;15.132;2023-05-14T01:38:13;11.90;99.90
20929;DHT22;21895;47.072;15.132;2023-05-14T01:40:44;11.90;99.90
20929;DHT22;21895;47.072;15.132;2023-05-14T01:43:11;11.90;99.90
20929;DHT22;21895;47.072;15.132;2023-05-14T01:45:39;12.00;99.90
20929;DHT22;21895;47.072;15.132;2023-05-14T01:48:05;12.00;99.90
20929;DHT22;21895;47.072;15.132;2023-05-14T01:50:32;11.90;99.90
20929;DHT22;21895;47.072;15.132;2023-05-14T01:52:58;12.00;99.90
20929;DHT22;21895;47.072;15.132;2023-05-14T01:55:25;11.90;99.90
20929;DHT22;21895;47.072;15.132;2023-05-14T01:57:52;12.00;99.90
20929;DHT22;21895;47.072;15.132;2023-05-14T02:00:21;12.00;99.90
20929;DHT22;21895;47.072;15.132;2023-05-14T02:02:48;12.00;99.90
20929;DHT22;21895;47.072;15.132;2023-05-14T02:05:15;12.00;99.90
20929;DHT22;21895;47.072;15.132;2023-05-14T02:07:42;12.00;99.90
20929;DHT22;21895;47.072;15.132;2023-05-14T02:10:08;12.10;99.90
20929;DHT22;21895;47.072;15.132;2023-05-14T02:12:35;12.00;99.90
20929;DHT22;21895;47.072;15.132;2023-05-14T02:15:02;12.00;99.90
20929;DHT22;21895;47.072;15.132;2023-05-14T02:17:29;12.00;99.90
20929;DHT22;21895;47.072;15.132;2023-05-14T02:19:56;12.00;99.90
20929;DHT22;21895;47.072;15.132;2023-05-14T02:22:23;12.00;99.90
20929;DHT22;21895;47.072;15.132;2023-05-14T02:24:49;12.00;99.90
20929;DHT22;21895;47.072;15.132;2023-05-14T02:27:16;11.90;99.90
20929;DHT22;21895;47.072;15.132;2023-05-14T02:29:43;12.00;99.90
20929;DHT22;21895;47.072;15.132;2023-05-14T02:32:09;12.00;99.90
20929;DHT22;21895;47.072;15.132;2023-05-14T02:34:36;12.00;99.90
20929;DHT22;21895;47.072;15.132;2023-05-14T02:37:03;12.00;99.90
20929;DHT22;21895;47.072;15.132;2023-05-14T02:39:30;12.10;99.90
20929;DHT22;21895;47.072;15.132;2023-05-14T02:41:56;12.10;99.90
20929;DHT22;21895;47.072;15.132;2023-05-14T02:44:23;12.00;99.90
20929;DHT22;21895;47.072;15.132;2023-05-14T02:46:49;11.90;99.90
20929;DHT22;21895;47.072;15.132;2023-05-14T02:49:16;11.90;99.90
20929;DHT22;21895;47.072;15.132;2023-05-14T02:51:43;11.90;99.90
20929;DHT22;21895;47.072;15.132;2023-05-14T02:54:09;11.90;99.90
20929;DHT22;21895;47.072;15.132;2023-05-14T02:56:36;11.90;99.90
20929;DHT22;21895;47.072;15.132;2023-05-14T02:59:03;11.90;99.90
20929;DHT22;21895;47.072;15.132;2023-05-14T03:01:30;11.90;99.90
20929;DHT22;21895;47.072;15.132;2023-05-14T03:03:57;12.00;99.90
20929;DHT22;21895;47.072;15.132;2023-05-14T03:06:23;12.00;99.90
20929;DHT22;21895;47.072;15.132;2023-05-14T03:08:53;12.10;99.90
20929;DHT22;21895;47.072;15.132;2023-05-14T03:11:19;12.00;99.90
20929;DHT22;21895;47.072;15.132;2023-05-14T03:13:46;12.10;99.90
20929;DHT22;21895;47.072;15.132;2023-05-14T03:16:13;12.10;99.90
20929;DHT22;21895;47.072;15.132;2023-05-14T03:18:39;12.10;99.90
20929;DHT22;21895;47.072;15.132;2023-05-14T03:21:06;12.10;99.90
20929;DHT22;21895;47.072;15.132;2023-05-14T03:23:34;12.10;99.90
20929;DHT22;21895;47.072;15.132;2023-05-14T03:26:00;12.10;99.90
20929;DHT22;21895;47.072;15.132;2023-05-14T03:28:27;12.10;99.90
20929;DHT22;21895;47.072;15.132;2023-05-14T03:30:53;12.10;99.90
20929;DHT22;21895;47.072;15.132;2023-05-14T03:33:20;12.10;99.90
20929;DHT22;21895;47.072;15.132;2023-05-14T03:35:47;12.10;99.90
20929;DHT22;21895;47.072;15.132;2023-05-14T03:38:14;12.10;99.90
20929;DHT22;21895;47.072;15.132;2023-05-14T03:40:40;12.10;99.90
20929;DHT22;21895;47.072;15.132;2023-05-14T03:43:07;12.00;99.90
20929;DHT22;21895;47.072;15.132;2023-05-14T03:45:34;12.10;99.90
20929;DHT22;21895;47.072;15.132;2023-05-14T03:48:00;12.10;99.90
20929;DHT22;21895;47.072;15.132;2023-05-14T03:50:27;12.20;99.90
20929;DHT22;21895;47.072;15.132;2023-05-14T03:52:53;12.20;99.90
20929;DHT22;21895;47.072;15.132;2023-05-14T03:55:20;12.20;99.90
20929;DHT22;21895;47.072;15.132;2023-05-14T03:57:47;12.20;99.90
20929;DHT22;21895;47.072;15.132;2023-05-14T04:00:14;12.20;99.90
20929;DHT22;21895;47.072;15.132;2023-05-14T04:02:41;12.40;99.90
20929;DHT22;21895;47.072;15.132;2023-05-14T04:05:08;12.30;99.90
20929;DHT22;21895;47.072;15.132;2023-05-14T04:07:35;12.30;99.90
20929;DHT22;21895;47.072;15.132;2023-05-14T04:10:02;12.30;99.90
20929;DHT22;21895;47.072;15.132;2023-05-14T04:12:32;12.20;99.90
20929;DHT22;21895;47.072;15.132;2023-05-14T04:14:59;12.30;99.90
20929;DHT22;21895;47.072;15.132;2023-05-14T04:17:25;12.30;99.90
20929;DHT22;21895;47.072;15.132;2023-05-14T04:19:52;12.40;99.90
20929;DHT22;21895;47.072;15.132;2023-05-14T04:22:19;12.30;99.90
20929;DHT22;21895;47.072;15.132;2023-05-14T04:24:45;12.30;99.90
20929;DHT22;21895;47.072;15.132;2023-05-14T04:27:19;12.40;99.90
20929;DHT22;21895;47.072;15.132;2023-05-14T04:29:46;12.30;99.90
20929;DHT22;21895;47.072;15.132;2023-05-14T04:32:13;12.40;99.90
20929;DHT22;21895;47.072;15.132;2023-05-14T04:34:40;12.50;99.90
20929;DHT22;21895;47.072;15.132;2023-05-14T04:37:06;12.40;99.90
20929;DHT22;21895;47.072;15.132;2023-05-14T04:39:33;12.40;99.90
20929;DHT22;21895;47.072;15.132;2023-05-14T04:41:59;12.40;99.90
20929;DHT22;21895;47.072;15.132;2023-05-14T04:44:26;12.40;99.90
20929;DHT22;21895;47.072;15.132;2023-05-14T04:46:52;12.50;99.90
20929;DHT22;21895;47.072;15.132;2023-05-14T04:49:19;12.50;99.90
20929;DHT22;21895;47.072;15.132;2023-05-14T04:51:46;12.50;99.90
20929;DHT22;21895;47.072;15.132;2023-05-14T04:54:13;12.50;99.90
20929;DHT22;21895;47.072;15.132;2023-05-14T04:56:39;12.60;99.90
20929;DHT22;21895;47.072;15.132;2023-05-14T04:59:06;12.60;99.90
20929;DHT22;21895;47.072;15.132;2023-05-14T05:01:32;12.60;99.90
20929;DHT22;21895;47.072;15.132;2023-05-14T05:03:59;12.60;99.90
20929;DHT22;21895;47.072;15.132;2023-05-14T05:06:26;12.50;99.90
20929;DHT22;21895;47.072;15.132;2023-05-14T05:08:52;12.60;99.90
20929;DHT22;21895;47.072;15.132;2023-05-14T05:11:20;12.50;99.90
20929;DHT22;21895;47.072;15.132;2023-05-14T05:13:46;12.50;99.90
20929;DHT22;21895;47.072;15.132;2023-05-14T05:16:13;12.60;99.90
20929;DHT22;21895;47.072;15.132;2023-05-14T05:18:39;12.60;99.90
20929;DHT22;21895;47.072;15.132;2023-05-14T05:21:06;12.60;99.90
20929;DHT22;21895;47.072;15.132;2023-05-14T05:23:32;12.60;99.90
20929;DHT22;21895;47.072;15.132;2023-05-14T05:25:59;12.70;99.90
20929;DHT22;21895;47.072;15.132;2023-05-14T05:28:25;12.70;99.90
20929;DHT22;21895;47.072;15.132;2023-05-14T05:30:52;12.90;99.90
20929;DHT22;21895;47.072;15.132;2023-05-14T05:33:18;12.90;99.90
20929;DHT22;21895;47.072;15.132;2023-05-14T05:35:45;12.90;99.90
20929;DHT22;21895;47.072;15.132;2023-05-14T05:38:13;12.80;99.90
20929;DHT22;21895;47.072;15.132;2023-05-14T05:40:40;12.70;99.90
20929;DHT22;21895;47.072;15.132;2023-05-14T05:43:07;12.70;99.90
20929;DHT22;21895;47.072;15.132;2023-05-14T05:45:33;12.70;99.90
20929;DHT22;21895;47.072;15.132;2023-05-14T05:47:59;12.70;99.90
20929;DHT22;21895;47.072;15.132;2023-05-14T05:50:26;12.70;99.90
20929;DHT22;21895;47.072;15.132;2023-05-14T05:52:53;12.80;99.90
20929;DHT22;21895;47.072;15.132;2023-05-14T05:55:19;12.80;99.90
20929;DHT22;21895;47.072;15.132;2023-05-14T05:57:46;12.80;99.90
20929;DHT22;21895;47.072;15.132;2023-05-14T06:00:13;12.80;99.90
20929;DHT22;21895;47.072;15.132;2023-05-14T06:02:40;12.90;99.90
20929;DHT22;21895;47.072;15.132;2023-05-14T06:05:08;12.90;99.90
20929;DHT22;21895;47.072;15.132;2023-05-14T06:07:35;12.90;99.90
20929;DHT22;21895;47.072;15.132;2023-05-14T06:10:02;12.90;99.90
20929;DHT22;21895;47.072;15.132;2023-05-14T06:12:29;12.90;99.90
20929;DHT22;21895;47.072;15.132;2023-05-14T06:14:56;12.70;99.90
20929;DHT22;21895;47.072;15.132;2023-05-14T06:17:23;12.70;99.90
20929;DHT22;21895;47.072;15.132;2023-05-14T06:19:50;12.70;99.90
20929;DHT22;21895;47.072;15.132;2023-05-14T06:22:17;12.60;99.90
20929;DHT22;21895;47.072;15.132;2023-05-14T06:24:44;12.60;99.90
20929;DHT22;21895;47.072;15.132;2023-05-14T06:27:10;12.60;99.90
20929;DHT22;21895;47.072;15.132;2023-05-14T06:29:37;12.60;99.90
20929;DHT22;21895;47.072;15.132;2023-05-14T06:32:04;12.70;99.90
20929;DHT22;21895;47.072;15.132;2023-05-14T06:34:31;12.70;99.90
20929;DHT22;21895;47.072;15.132;2023-05-14T06:36:57;12.70;99.90
20929;DHT22;21895;47.072;15.132;2023-05-14T06:39:25;12.70;99.90
20929;DHT22;21895;47.072;15.132;2023-05-14T06:41:51;12.80;99.90
20929;DHT22;21895;47.072;15.132;2023-05-14T06:44:18;12.90;99.90
20929;DHT22;21895;47.072;15.132;2023-05-14T06:46:45;12.90;99.90
20929;DHT22;21895;47.072;15.132;2023-05-14T06:49:11;12.90;99.90
20929;DHT22;21895;47.072;15.132;2023-05-14T06:51:38;13.00;99.90
20929;DHT22;21895;47.072;15.132;2023-05-14T06:54:05;13.10;99.90
20929;DHT22;21895;47.072;15.132;2023-05-14T06:56:32;13.10;99.90
20929;DHT22;21895;47.072;15.132;2023-05-14T06:58:58;13.20;99.90
20929;DHT22;21895;47.072;15.132;2023-05-14T07:01:25;13.30;99.90
20929;DHT22;21895;47.072;15.132;2023-05-14T07:03:51;13.30;99.90
20929;DHT22;21895;47.072;15.132;2023-05-14T07:06:18;13.30;99.90
20929;DHT22;21895;47.072;15.132;2023-05-14T07:08:44;13.30;99.90
20929;DHT22;21895;47.072;15.132;2023-05-14T07:11:11;13.30;99.90
20929;DHT22;21895;47.072;15.132;2023-05-14T07:13:40;13.30;99.90
20929;DHT22;21895;47.072;15.132;2023-05-14T07:16:07;13.20;99.90
20929;DHT22;21895;47.072;15.132;2023-05-14T07:18:37;13.20;99.90
20929;DHT22;21895;47.072;15.132;2023-05-14T07:21:03;13.20;99.90
20929;DHT22;21895;47.072;15.132;2023-05-14T07:23:32;13.10;99.90
20929;DHT22;21895;47.072;15.132;2023-05-14T07:26:02;13.00;99.90
20929;DHT22;21895;47.072;15.132;2023-05-14T07:28:28;13.00;99.90
20929;DHT22;21895;47.072;15.132;2023-05-14T07:30:55;13.00;99.90
20929;DHT22;21895;47.072;15.132;2023-05-14T07:33:22;13.00;99.90
20929;DHT22;21895;47.072;15.132;2023-05-14T07:35:49;13.00;99.90
20929;DHT22;21895;47.072;15.132;2023-05-14T07:38:16;13.00;99.90
20929;DHT22;21895;47.072;15.132;2023-05-14T07:40:44;13.00;99.90
20929;DHT22;21895;47.072;15.132;2023-05-14T07:43:10;13.10;99.90
20929;DHT22;21895;47.072;15.132;2023-05-14T07:45:37;13.10;99.90
20929;DHT22;21895;47.072;15.132;2023-05-14T07:48:04;13.00;99.90
20929;DHT22;21895;47.072;15.132;2023-05-14T07:50:31;13.10;99.90
20929;DHT22;21895;47.072;15.132;2023-05-14T07:52:57;13.10;99.90
20929;DHT22;21895;47.072;15.132;2023-05-14T07:55:24;13.10;99.90
20929;DHT22;21895;47.072;15.132;2023-05-14T07:57:50;13.10;99.90
20929;DHT22;21895;47.072;15.132;2023-05-14T08:00:17;13.10;99.90
20929;DHT22;21895;47.072;15.132;2023-05-14T08:02:44;13.20;99.90
20929;DHT22;21895;47.072;15.132;2023-05-14T08:05:11;13.30;99.90
20929;DHT22;21895;47.072;15.132;2023-05-14T08:07:37;13.40;99.90
20929;DHT22;21895;47.072;15.132;2023-05-14T08:10:04;13.50;99.90
20929;DHT22;21895;47.072;15.132;2023-05-14T08:12:32;13.50;99.90
20929;DHT22;21895;47.072;15.132;2023-05-14T08:14:59;13.50;99.90
20929;DHT22;21895;47.072;15.132;2023-05-14T08:17:25;13.40;99.90
20929;DHT22;21895;47.072;15.132;2023-05-14T08:19:52;13.40;99.90
20929;DHT22;21895;47.072;15.132;2023-05-14T08:22:19;13.30;99.90
20929;DHT22;21895;47.072;15.132;2023-05-14T08:24:45;13.40;99.90
20929;DHT22;21895;47.072;15.132;2023-05-14T08:27:12;13.50;99.90
20929;DHT22;21895;47.072;15.132;2023-05-14T08:29:38;13.50;99.90
20929;DHT22;21895;47.072;15.132;2023-05-14T08:32:05;13.60;99.90
20929;DHT22;21895;47.072;15.132;2023-05-14T08:34:48;13.70;99.90
20929;DHT22;21895;47.072;15.132;2023-05-14T08:37:15;13.70;99.90
20929;DHT22;21895;47.072;15.132;2023-05-14T08:39:42;13.80;99.90
20929;DHT22;21895;47.072;15.132;2023-05-14T08:42:11;13.90;99.90
20929;DHT22;21895;47.072;15.132;2023-05-14T08:44:47;14.00;99.90
20929;DHT22;21895;47.072;15.132;2023-05-14T08:47:20;14.10;99.90
20929;DHT22;21895;47.072;15.132;2023-05-14T08:50:08;14.10;99.90
20929;DHT22;21895;47.072;15.132;2023-05-14T08:52:36;14.20;99.90
20929;DHT22;21895;47.072;15.132;2023-05-14T08:55:04;14.40;99.90
20929;DHT22;21895;47.072;15.132;2023-05-14T08:57:32;14.60;99.90
20929;DHT22;21895;47.072;15.132;2023-05-14T08:59:59;14.70;99.90
20929;DHT22;21895;47.072;15.132;2023-05-14T09:02:30;14.90;99.90
20929;DHT22;21895;47.072;15.132;2023-05-14T09:04:59;14.90;99.90
20929;DHT22;21895;47.072;15.132;2023-05-14T09:07:27;14.80;99.90
20929;DHT22;21895;47.072;15.132;2023-05-14T09:09:54;14.90;99.90
20929;DHT22;21895;47.072;15.132;2023-05-14T09:12:21;15.00;99.90
20929;DHT22;21895;47.072;15.132;2023-05-14T09:14:48;14.80;99.90
20929;DHT22;21895;47.072;15.132;2023-05-14T09:17:17;14.80;99.90
20929;DHT22;21895;47.072;15.132;2023-05-14T09:19:45;14.90;99.90
20929;DHT22;21895;47.072;15.132;2023-05-14T09:22:16;14.80;99.90
20929;DHT22;21895;47.072;15.132;2023-05-14T09:24:43;14.80;99.90
20929;DHT22;21895;47.072;15.132;2023-05-14T09:27:17;14.80;99.90
20929;DHT22;21895;47.072;15.132;2023-05-14T09:29:47;14.70;99.90
20929;DHT22;21895;47.072;15.132;2023-05-14T09:32:13;14.60;99.90
20929;DHT22;21895;47.072;15.132;2023-05-14T09:34:40;14.60;99.90
20929;DHT22;21895;47.072;15.132;2023-05-14T09:37:08;14.70;99.90
20929;DHT22;21895;47.072;15.132;2023-05-14T09:39:36;14.70;99.90
20929;DHT22;21895;47.072;15.132;2023-05-14T09:42:03;14.70;99.90
20929;DHT22;21895;47.072;15.132;2023-05-14T09:44:30;14.80;99.90
20929;DHT22;21895;47.072;15.132;2023-05-14T09:46:56;14.70;99.90
20929;DHT22;21895;47.072;15.132;2023-05-14T09:49:23;14.60;99.90
20929;DHT22;21895;47.072;15.132;2023-05-14T09:51:50;14.60;99.90
20929;DHT22;21895;47.072;15.132;2023-05-14T09:54:16;14.50;99.90
20929;DHT22;21895;47.072;15.132;2023-05-14T09:56:43;14.40;99.90
20929;DHT22;21895;47.072;15.132;2023-05-14T09:59:10;14.40;99.90
20929;DHT22;21895;47.072;15.132;2023-05-14T10:01:36;14.40;99.90
20929;DHT22;21895;47.072;15.132;2023-05-14T10:04:06;14.40;99.90
20929;DHT22;21895;47.072;15.132;2023-05-14T10:06:36;14.50;99.90
20929;DHT22;21895;47.072;15.132;2023-05-14T10:09:08;14.60;99.90
20929;DHT22;21895;47.072;15.132;2023-05-14T10:11:38;14.70;99.90
20929;DHT22;21895;47.072;15.132;2023-05-14T10:14:20;14.90;99.90
20929;DHT22;21895;47.072;15.132;2023-05-14T10:16:52;15.10;99.90
20929;DHT22;21895;47.072;15.132;2023-05-14T10:19:23;15.40;99.90
20929;DHT22;21895;47.072;15.132;2023-05-14T10:22:02;15.60;99.90
20929;DHT22;21895;47.072;15.132;2023-05-14T10:24:32;15.60;99.90
20929;DHT22;21895;47.072;15.132;2023-05-14T10:26:59;15.50;99.90
20929;DHT22;21895;47.072;15.132;2023-05-14T10:29:36;15.50;99.90
20929;DHT22;21895;47.072;15.132;2023-05-14T10:32:05;15.30;99.90
20929;DHT22;21895;47.072;15.132;2023-05-14T10:34:42;15.20;99.90
20929;DHT22;21895;47.072;15.132;2023-05-14T10:37:20;15.10;99.90
20929;DHT22;21895;47.072;15.132;2023-05-14T10:39:53;15.10;99.90
20929;DHT22;21895;47.072;15.132;2023-05-14T10:42:33;14.90;99.90
20929;DHT22;21895;47.072;15.132;2023-05-14T10:45:07;14.90;99.90
20929;DHT22;21895;47.072;15.132;2023-05-14T10:47:39;14.80;99.90
20929;DHT22;21895;47.072;15.132;2023-05-14T10:50:10;14.60;99.90
20929;DHT22;21895;47.072;15.132;2023-05-14T10:52:43;14.40;99.90
20929;DHT22;21895;47.072;15.132;2023-05-14T10:55:14;14.30;99.90
20929;DHT22;21895;47.072;15.132;2023-05-14T10:57:43;14.30;99.90
20929;DHT22;21895;47.072;15.132;2023-05-14T11:00:12;14.30;99.90
20929;DHT22;21895;47.072;15.132;2023-05-14T11:02:43;14.30;99.90
20929;DHT22;21895;47.072;15.132;2023-05-14T11:05:12;14.30;99.90
20929;DHT22;21895;47.072;15.132;2023-05-14T11:07:50;14.40;99.90
20929;DHT22;21895;47.072;15.132;2023-05-14T11:10:20;14.40;99.90
20929;DHT22;21895;47.072;15.132;2023-05-14T11:12:48;14.60;99.90
20929;DHT22;21895;47.072;15.132;2023-05-14T11:15:17;14.80;99.90
20929;DHT22;21895;47.072;15.132;2023-05-14T11:17:46;14.90;99.90
20929;DHT22;21895;47.072;15.132;2023-05-14T11:20:14;14.90;99.90
20929;DHT22;21895;47.072;15.132;2023-05-14T11:22:42;14.70;99.90
20929;DHT22;21895;47.072;15.132;2023-05-14T11:25:10;14.60;99.90
20929;DHT22;21895;47.072;15.132;2023-05-14T11:27:41;14.40;99.90
20929;DHT22;21895;47.072;15.132;2023-05-14T11:30:19;14.30;99.90
20929;DHT22;21895;47.072;15.132;2023-05-14T11:32:47;14.30;99.90
20929;DHT22;21895;47.072;15.132;2023-05-14T11:35:15;14.30;99.90
20929;DHT22;21895;47.072;15.132;2023-05-14T11:37:48;14.30;99.90
20929;DHT22;21895;47.072;15.132;2023-05-14T11:40:18;14.20;99.90
20929;DHT22;21895;47.072;15.132;2023-05-14T11:42:45;14.20;99.90
20929;DHT22;21895;47.072;15.132;2023-05-14T11:45:13;14.30;99.90
20929;DHT22;21895;47.072;15.132;2023-05-14T11:47:51;14.30;99.90
20929;DHT22;21895;47.072;15.132;2023-05-14T11:50:21;14.40;99.90
20929;DHT22;21895;47.072;15.132;2023-05-14T11:52:48;14.30;99.90
20929;DHT22;21895;47.072;15.132;2023-05-14T11:55:16;14.20;99.90
20929;DHT22;21895;47.072;15.132;2023-05-14T11:57:42;14.10;99.90
20929;DHT22;21895;47.072;15.132;2023-05-14T12:00:10;14.10;99.90
20929;DHT22;21895;47.072;15.132;2023-05-14T12:02:47;14.00;99.90
20929;DHT22;21895;47.072;15.132;2023-05-14T12:05:14;13.90;99.90
20929;DHT22;21895;47.072;15.132;2023-05-14T12:07:43;14.00;99.90
20929;DHT22;21895;47.072;15.132;2023-05-14T12:10:11;14.00;99.90
20929;DHT22;21895;47.072;15.132;2023-05-14T12:12:38;14.00;99.90
20929;DHT22;21895;47.072;15.132;2023-05-14T12:15:11;14.00;99.90
20929;DHT22;21895;47.072;15.132;2023-05-14T12:17:39;14.10;99.90
20929;DHT22;21895;47.072;15.132;2023-05-14T12:20:10;14.00;99.90
20929;DHT22;21895;47.072;15.132;2023-05-14T12:22:37;13.90;99.90
20929;DHT22;21895;47.072;15.132;2023-05-14T12:25:10;13.90;99.90
20929;DHT22;21895;47.072;15.132;2023-05-14T12:27:43;13.90;99.90
20929;DHT22;21895;47.072;15.132;2023-05-14T12:30:11;13.80;99.90
20929;DHT22;21895;47.072;15.132;2023-05-14T12:33:00;13.80;99.90
20929;DHT22;21895;47.072;15.132;2023-05-14T12:35:26;13.50;99.90
20929;DHT22;21895;47.072;15.132;2023-05-14T12:37:53;13.40;99.90
20929;DHT22;21895;47.072;15.132;2023-05-14T12:40:20;13.40;99.90
20929;DHT22;21895;47.072;15.132;2023-05-14T12:42:47;13.40;99.90
20929;DHT22;21895;47.072;15.132;2023-05-14T12:45:13;13.30;99.90
20929;DHT22;21895;47.072;15.132;2023-05-14T12:47:40;13.30;99.90
20929;DHT22;21895;47.072;15.132;2023-05-14T12:50:07;13.30;99.90
20929;DHT22;21895;47.072;15.132;2023-05-14T12:52:34;13.30;99.90
20929;DHT22;21895;47.072;15.132;2023-05-14T12:55:06;13.20;99.90
20929;DHT22;21895;47.072;15.132;2023-05-14T12:57:33;13.10;99.90
20929;DHT22;21895;47.072;15.132;2023-05-14T13:00:00;13.10;99.90
20929;DHT22;21895;47.072;15.132;2023-05-14T13:02:27;13.10;99.90
20929;DHT22;21895;47.072;15.132;2023-05-14T13:04:53;13.10;99.90
20929;DHT22;21895;47.072;15.132;2023-05-14T13:07:20;13.00;99.90
20929;DHT22;21895;47.072;15.132;2023-05-14T13:09:46;13.00;99.90
20929;DHT22;21895;47.072;15.132;2023-05-14T13:12:13;13.10;99.90
20929;DHT22;21895;47.072;15.132;2023-05-14T13:14:39;13.10;99.90
20929;DHT22;21895;47.072;15.132;2023-05-14T13:17:06;13.20;99.90
20929;DHT22;21895;47.072;15.132;2023-05-14T13:19:33;13.30;99.90
20929;DHT22;21895;47.072;15.132;2023-05-14T13:21:59;13.40;99.90
20929;DHT22;21895;47.072;15.132;2023-05-14T13:24:26;13.50;99.90
20929;DHT22;21895;47.072;15.132;2023-05-14T13:26:52;13.50;99.90
20929;DHT22;21895;47.072;15.132;2023-05-14T13:29:19;13.50;99.90
20929;DHT22;21895;47.072;15.132;2023-05-14T13:31:45;13.50;99.90
20929;DHT22;21895;47.072;15.132;2023-05-14T13:34:12;13.50;99.90
20929;DHT22;21895;47.072;15.132;2023-05-14T13:36:38;13.60;99.90
20929;DHT22;21895;47.072;15.132;2023-05-14T13:39:07;13.60;99.90
20929;DHT22;21895;47.072;15.132;2023-05-14T13:41:33;13.60;99.90
20929;DHT22;21895;47.072;15.132;2023-05-14T13:44:00;13.60;99.90
20929;DHT22;21895;47.072;15.132;2023-05-14T13:46:27;13.70;99.90
20929;DHT22;21895;47.072;15.132;2023-05-14T13:48:53;13.70;99.90
20929;DHT22;21895;47.072;15.132;2023-05-14T13:51:21;13.80;99.90
20929;DHT22;21895;47.072;15.132;2023-05-14T13:53:48;13.70;99.90
20929;DHT22;21895;47.072;15.132;2023-05-14T13:56:14;13.70;99.90
20929;DHT22;21895;47.072;15.132;2023-05-14T13:58:41;13.70;99.90
20929;DHT22;21895;47.072;15.132;2023-05-14T14:01:07;13.70;99.90
20929;DHT22;21895;47.072;15.132;2023-05-14T14:03:34;13.70;99.90
20929;DHT22;21895;47.072;15.132;2023-05-14T14:06:00;13.70;99.90
20929;DHT22;21895;47.072;15.132;2023-05-14T14:08:27;13.80;99.90
20929;DHT22;21895;47.072;15.132;2023-05-14T14:10:53;13.80;99.90
20929;DHT22;21895;47.072;15.132;2023-05-14T14:13:20;13.80;99.90
20929;DHT22;21895;47.072;15.132;2023-05-14T14:15:47;13.80;99.90
20929;DHT22;21895;47.072;15.132;2023-05-14T14:18:14;13.70;99.90
20929;DHT22;21895;47.072;15.132;2023-05-14T14:20:41;13.70;99.90
20929;DHT22;21895;47.072;15.132;2023-05-14T14:23:07;13.70;99.90
20929;DHT22;21895;47.072;15.132;2023-05-14T14:25:34;13.80;99.90
20929;DHT22;21895;47.072;15.132;2023-05-14T14:28:00;13.80;99.90
20929;DHT22;21895;47.072;15.132;2023-05-14T14:30:27;13.80;99.90
20929;DHT22;21895;47.072;15.132;2023-05-14T14:32:53;13.70;99.90
20929;DHT22;21895;47.072;15.132;2023-05-14T14:35:20;13.70;99.90
20929;DHT22;21895;47.072;15.132;2023-05-14T14:37:47;13.70;99.90
20929;DHT22;21895;47.072;15.132;2023-05-14T14:40:15;13.70;99.90
20929;DHT22;21895;47.072;15.132;2023-05-14T14:42:42;13.70;99.90
20929;DHT22;21895;47.072;15.132;2023-05-14T14:45:09;13.70;99.90
20929;DHT22;21895;47.072;15.132;2023-05-14T14:47:37;13.70;99.90
20929;DHT22;21895;47.072;15.132;2023-05-14T14:50:04;13.70;99.90
20929;DHT22;21895;47.072;15.132;2023-05-14T14:52:31;13.70;99.90
20929;DHT22;21895;47.072;15.132;2023-05-14T14:54:58;13.70;99.90
20929;DHT22;21895;47.072;15.132;2023-05-14T14:57:25;13.70;99.90
20929;DHT22;21895;47.072;15.132;2023-05-14T14:59:52;13.60;99.90
20929;DHT22;21895;47.072;15.132;2023-05-14T15:02:18;13.60;99.90
20929;DHT22;21895;47.072;15.132;2023-05-14T15:04:45;13.60;99.90
20929;DHT22;21895;47.072;15.132;2023-05-14T15:07:11;13.60;99.90
20929;DHT22;21895;47.072;15.132;2023-05-14T15:09:40;13.50;99.90
20929;DHT22;21895;47.072;15.132;2023-05-14T15:12:07;13.50;99.90
20929;DHT22;21895;47.072;15.132;2023-05-14T15:14:35;13.50;99.90
20929;DHT22;21895;47.072;15.132;2023-05-14T15:17:01;13.50;99.90
20929;DHT22;21895;47.072;15.132;2023-05-14T15:19:28;13.50;99.90
20929;DHT22;21895;47.072;15.132;2023-05-14T15:21:56;13.40;99.90
20929;DHT22;21895;47.072;15.132;2023-05-14T15:24:23;13.40;99.90